Time;durP1;ratioP1;P1;durP2;ratioP2;P2;SDS_P1;SDS_P2;PMS_P1;PMS_P2;Temp;Humidity;BMP_temperature;BMP_pressure;BME280_temperature;BME280_humidity;BME280_pressure;Samples;Min_cycle;Max_cycle;Signal;HPM_P1;HPM_P2
2024/01/21 02:34:01;;;;;;;;;;;;;;;;;;;;;
2024/01/21 02:37:01;;;;;;;;;;;;;;;;;;;;;
2024/01/21 02:39:34;;;;;;;9.90;7.60;;;-2.70;1.00;;;;;;6133590;23;20208;-89
2024/01/21 02:42:20;;;;;;;12.48;7.90;;;-2.40;1.00;;;;;;6136396;23;20189;-88
2024/01/21 02:44:49;;;;;;;9.27;7.30;;;-2.70;1.00;;;;;;6142520;23;20212;-82
2024/01/21 02:47:16;;;;;;;7.82;6.85;;;-2.60;1.00;;;;;;6145041;23;20176;-83
2024/01/21 02:49:45;;;;;;;9.73;7.53;;;-2.70;1.00;;;;;;6145849;23;20181;-82
2024/01/21 02:52:11;;;;;;;10.80;7.50;;;-2.70;1.00;;;;;;6145289;23;20177;-82
2024/01/21 02:54:38;;;;;;;13.32;7.97;;;-2.70;1.00;;;;;;6136246;23;20566;-82
2024/01/21 02:57:06;;;;;;;12.18;8.23;;;-2.70;1.00;;;;;;6136372;23;20213;-84
2024/01/21 02:59:32;;;;;;;11.93;8.25;;;-2.70;1.00;;;;;;6150174;23;20177;-82
2024/01/21 03:01:59;;;;;;;12.73;8.38;;;-2.70;1.00;;;;;;6147454;23;20240;-82
2024/01/21 03:04:26;;;;;;;14.85;8.77;;;-2.70;1.00;;;;;;6149494;23;20201;-83
2024/01/21 03:06:55;;;;;;;18.25;11.80;;;-2.90;1.00;;;;;;6153781;23;20194;-82
2024/01/21 03:09:22;;;;;;;15.80;8.98;;;-2.90;1.00;;;;;;6153818;23;20188;-82
2024/01/21 03:11:49;;;;;;;13.93;9.23;;;-2.80;1.00;;;;;;6151582;23;20183;-82
2024/01/21 03:14:16;;;;;;;15.25;9.40;;;-2.90;1.00;;;;;;6149972;23;20238;-83
2024/01/21 03:16:43;;;;;;;13.52;10.38;;;-2.90;1.00;;;;;;6137109;23;20261;-83
2024/01/21 03:19:10;;;;;;;14.43;8.75;;;-3.00;1.00;;;;;;6135594;23;20233;-83
2024/01/21 03:21:36;;;;;;;12.82;8.07;;;-3.10;1.00;;;;;;6131833;23;20209;-83
2024/01/21 03:24:05;;;;;;;12.48;8.68;;;-3.00;1.00;;;;;;6130467;23;20280;-83
2024/01/21 03:26:32;;;;;;;12.27;8.30;;;-3.00;1.00;;;;;;6135841;23;20201;-82
2024/01/21 03:28:59;;;;;;;11.32;8.70;;;-3.00;1.00;;;;;;6140285;23;20196;-82
2024/01/21 03:31:28;;;;;;;10.13;8.35;;;-3.00;1.00;;;;;;6140201;23;20264;-83
2024/01/21 03:33:54;;;;;;;11.65;7.68;;;-3.00;1.00;;;;;;6143100;23;20553;-81
2024/01/21 03:36:21;;;;;;;9.27;7.95;;;-3.00;1.00;;;;;;6145856;23;20201;-83
2024/01/21 03:38:50;;;;;;;11.85;8.15;;;-3.00;1.00;;;;;;6152624;23;20177;-82
2024/01/21 03:41:19;;;;;;;11.88;7.35;;;-3.00;1.00;;;;;;6148113;23;20185;-82
2024/01/21 03:43:46;;;;;;;12.98;7.15;;;-3.00;1.00;;;;;;6142562;23;20203;-84
2024/01/21 03:46:13;;;;;;;15.05;8.50;;;-3.00;1.00;;;;;;6141334;23;20216;-83
2024/01/21 03:48:40;;;;;;;13.63;7.97;;;-3.00;1.00;;;;;;6151594;23;20184;-83
2024/01/21 03:51:10;;;;;;;12.10;6.85;;;-3.00;1.00;;;;;;6145563;23;20220;-83
2024/01/21 03:53:39;;;;;;;9.95;7.55;;;-3.00;1.00;;;;;;6136732;23;20161;-83
2024/01/21 03:56:06;;;;;;;12.13;7.47;;;-3.00;1.00;;;;;;6135799;23;20201;-83
2024/01/21 03:58:34;;;;;;;10.40;7.88;;;-3.00;1.00;;;;;;6135694;23;20181;-83
2024/01/21 04:01:03;;;;;;;10.43;7.88;;;-3.00;1.00;;;;;;6133815;23;20188;-83
2024/01/21 04:03:29;;;;;;;10.85;7.65;;;-3.10;1.00;;;;;;6133982;23;20177;-83
2024/01/21 04:05:56;;;;;;;16.02;8.27;;;-3.10;1.00;;;;;;6133908;23;20601;-84
2024/01/21 04:08:23;;;;;;;9.15;8.18;;;-3.20;1.00;;;;;;6133358;23;20236;-83
2024/01/21 04:10:50;;;;;;;10.52;7.45;;;-3.20;1.00;;;;;;6140990;23;20217;-82
2024/01/21 04:13:18;;;;;;;7.93;6.97;;;-3.20;1.00;;;;;;6137328;23;20184;-84
2024/01/21 04:15:46;;;;;;;10.93;7.45;;;-3.20;1.00;;;;;;6130002;23;20234;-85
2024/01/21 04:18:13;;;;;;;9.50;8.35;;;-3.20;1.00;;;;;;6130696;23;20205;-84
2024/01/21 04:20:40;;;;;;;9.02;7.68;;;-3.10;1.00;;;;;;6132249;23;20173;-84
2024/01/21 04:23:07;;;;;;;13.27;8.15;;;-3.20;1.00;;;;;;6132649;23;20260;-84
2024/01/21 04:25:34;;;;;;;12.70;8.25;;;-3.20;1.00;;;;;;6134797;23;20257;-81
2024/01/21 04:28:00;;;;;;;10.55;7.80;;;-3.20;1.00;;;;;;6133729;23;20204;-83
2024/01/21 04:30:27;;;;;;;9.88;7.43;;;-3.20;1.00;;;;;;6133689;23;20177;-84
2024/01/21 04:32:55;;;;;;;8.05;6.93;;;-3.20;1.00;;;;;;6133363;23;20216;-84
2024/01/21 04:35:22;;;;;;;7.85;7.05;;;-3.20;1.00;;;;;;6133261;23;20201;-84
2024/01/21 04:37:50;;;;;;;12.50;7.85;;;-3.20;1.00;;;;;;6134728;23;20209;-84
2024/01/21 04:40:16;;;;;;;9.27;7.50;;;-3.10;1.00;;;;;;6133580;23;20216;-84
2024/01/21 04:42:43;;;;;;;12.82;7.95;;;-3.10;1.00;;;;;;6132875;23;20282;-84
2024/01/21 04:45:10;;;;;;;10.65;8.00;;;-3.20;1.00;;;;;;6132582;23;20221;-84
2024/01/21 04:47:37;;;;;;;9.10;7.30;;;-3.20;1.00;;;;;;6133596;23;20181;-84
2024/01/21 04:50:06;;;;;;;11.88;6.85;;;-3.20;1.00;;;;;;6133713;23;20177;-84
2024/01/21 04:52:33;;;;;;;9.63;7.13;;;-3.10;1.00;;;;;;6137579;23;20208;-84
2024/01/21 04:55:00;;;;;;;7.70;6.50;;;-3.10;1.00;;;;;;6142304;23;20201;-83
2024/01/21 04:57:27;;;;;;;8.05;6.95;;;-3.10;1.00;;;;;;6142130;23;20188;-83
2024/01/21 04:59:53;;;;;;;9.93;7.57;;;-3.10;1.00;;;;;;6137824;23;20197;-84
2024/01/21 05:02:20;;;;;;;10.02;7.60;;;-3.00;1.00;;;;;;6129796;23;20229;-83
2024/01/21 05:04:47;;;;;;;8.82;7.93;;;-3.00;1.00;;;;;;6151229;23;20216;-82
2024/01/21 05:07:15;;;;;;;10.77;7.13;;;-3.00;1.00;;;;;;6151673;23;20181;-83
2024/01/21 05:09:42;;;;;;;10.68;7.35;;;-3.00;1.00;;;;;;6141455;23;20173;-83
2024/01/21 05:12:09;;;;;;;8.68;6.63;;;-2.90;1.00;;;;;;6132831;23;20181;-83
2024/01/21 05:14:36;;;;;;;7.72;6.85;;;-2.80;1.00;;;;;;6132418;23;20178;-83
2024/01/21 05:17:04;;;;;;;11.73;7.90;;;-2.80;1.00;;;;;;6131522;23;20212;-83
2024/01/21 05:19:30;;;;;;;8.40;6.90;;;-2.70;1.00;;;;;;6132290;23;20517;-83
2024/01/21 05:21:57;;;;;;;8.98;7.15;;;-2.70;1.00;;;;;;6133551;23;20177;-82
2024/01/21 05:24:25;;;;;;;8.27;6.35;;;-2.70;1.00;;;;;;6133277;23;20587;-83
2024/01/21 05:26:52;;;;;;;9.98;6.85;;;-2.80;1.00;;;;;;6132604;23;20208;-83
2024/01/21 05:29:19;;;;;;;6.22;5.57;;;-2.80;1.00;;;;;;6146848;23;20199;-83
2024/01/21 05:31:46;;;;;;;10.48;7.28;;;-2.70;1.00;;;;;;6130136;23;20177;-83
2024/01/21 05:34:13;;;;;;;12.10;7.10;;;-2.80;1.00;;;;;;6132294;23;20200;-83
2024/01/21 05:36:41;;;;;;;9.95;6.72;;;-2.80;1.00;;;;;;6139928;23;20231;-82
2024/01/21 05:39:09;;;;;;;9.10;6.80;;;-2.80;1.00;;;;;;6147379;23;20561;-82
2024/01/21 05:41:37;;;;;;;7.65;5.88;;;-2.80;1.00;;;;;;6134267;23;20241;-83
2024/01/21 05:44:04;;;;;;;10.15;6.32;;;-2.80;1.00;;;;;;6134160;23;20181;-84
2024/01/21 05:46:31;;;;;;;12.80;6.93;;;-2.80;1.00;;;;;;6141748;23;20243;-83
2024/01/21 05:48:57;;;;;;;7.00;5.90;;;-2.70;1.00;;;;;;6139142;23;20209;-83
2024/01/21 05:51:24;;;;;;;9.68;7.60;;;-2.70;1.00;;;;;;6145429;23;20260;-83
2024/01/21 05:53:51;;;;;;;9.23;6.18;;;-2.70;1.00;;;;;;6137754;23;20181;-84
2024/01/21 05:56:18;;;;;;;7.60;6.10;;;-2.70;1.00;;;;;;6133607;23;20216;-83
2024/01/21 05:58:47;;;;;;;9.43;6.45;;;-2.60;1.00;;;;;;6133027;23;20208;-84
2024/01/21 06:01:14;;;;;;;10.85;7.00;;;-2.60;1.00;;;;;;6134571;23;20183;-83
2024/01/21 06:03:41;;;;;;;10.70;6.53;;;-2.70;1.00;;;;;;6133489;23;20256;-84
2024/01/21 06:06:08;;;;;;;7.60;6.45;;;-2.60;1.00;;;;;;6133317;23;20239;-83
2024/01/21 06:08:34;;;;;;;9.30;7.25;;;-2.60;1.00;;;;;;6134340;23;20252;-84
2024/01/21 06:11:01;;;;;;;7.20;6.22;;;-2.70;1.00;;;;;;6133689;23;20261;-84
2024/01/21 06:13:28;;;;;;;7.40;6.55;;;-2.80;1.00;;;;;;6133998;23;20707;-84
2024/01/21 06:16:00;;;;;;;11.85;6.45;;;-2.80;1.00;;;;;;6134275;23;20252;-84
2024/01/21 06:18:26;;;;;;;10.30;6.50;;;-2.80;1.00;;;;;;6134198;23;20213;-84
2024/01/21 06:20:53;;;;;;;8.93;7.70;;;-2.70;1.00;;;;;;6134151;23;20581;-84
2024/01/21 06:23:20;;;;;;;10.05;6.22;;;-2.70;1.00;;;;;;6134196;23;20212;-83
2024/01/21 06:25:47;;;;;;;10.80;7.18;;;-2.60;1.00;;;;;;6133133;23;20201;-82
2024/01/21 06:28:14;;;;;;;10.07;7.35;;;-2.50;1.00;;;;;;6134042;23;20216;-82
2024/01/21 06:30:41;;;;;;;8.55;6.47;;;-2.50;1.00;;;;;;6133698;23;20208;-83
2024/01/21 06:33:09;;;;;;;9.13;6.60;;;-2.50;1.00;;;;;;6133375;23;20715;-83
2024/01/21 06:35:36;;;;;;;9.25;6.47;;;-2.60;1.00;;;;;;6133396;23;20274;-83
2024/01/21 06:38:02;;;;;;;8.38;6.63;;;-2.50;1.00;;;;;;6133911;23;20211;-82
2024/01/21 06:40:31;;;;;;;8.23;7.32;;;-2.50;1.00;;;;;;6134168;23;20211;-83
2024/01/21 06:42:58;;;;;;;7.50;6.20;;;-2.50;1.00;;;;;;6134309;23;20205;-83
2024/01/21 06:45:24;;;;;;;10.65;6.57;;;-2.50;1.00;;;;;;6133749;23;20244;-83
2024/01/21 06:47:51;;;;;;;9.70;6.32;;;-2.50;1.00;;;;;;6133887;23;20256;-83
2024/01/21 06:50:21;;;;;;;9.48;6.00;;;-2.50;1.00;;;;;;6133931;23;20189;-83
2024/01/21 06:52:49;;;;;;;9.27;6.60;;;-2.40;1.00;;;;;;6137486;23;20176;-83
2024/01/21 06:55:16;;;;;;;9.43;6.30;;;-2.50;1.00;;;;;;6155030;23;20220;-82
2024/01/21 06:57:42;;;;;;;7.88;6.32;;;-2.40;1.00;;;;;;6155331;23;20173;-82
2024/01/21 07:00:11;;;;;;;10.32;6.55;;;-2.40;1.00;;;;;;6154956;23;20207;-82
2024/01/21 07:02:38;;;;;;;11.10;6.68;;;-2.50;1.00;;;;;;6154611;23;20167;-82
2024/01/21 07:05:05;;;;;;;7.80;5.53;;;-2.40;1.00;;;;;;6153173;23;20205;-83
2024/01/21 07:07:33;;;;;;;11.73;8.77;;;-2.40;1.00;;;;;;6147678;23;20209;-84
2024/01/21 07:10:00;;;;;;;11.40;7.45;;;-2.30;1.00;;;;;;6142861;23;20204;-83
2024/01/21 07:12:27;;;;;;;7.38;6.55;;;-2.30;1.00;;;;;;6139669;23;20181;-84
2024/01/21 07:14:54;;;;;;;8.10;6.97;;;-2.40;1.00;;;;;;6136659;23;20252;-84
2024/01/21 07:17:20;;;;;;;10.95;8.10;;;-2.40;1.00;;;;;;6136971;23;20240;-84
2024/01/21 07:19:52;;;;;;;9.85;6.38;;;-2.50;1.00;;;;;;6135500;23;20264;-83
2024/01/21 07:22:19;;;;;;;6.90;6.20;;;-2.40;1.00;;;;;;6134456;23;20263;-83
2024/01/21 07:24:47;;;;;;;7.82;7.00;;;-2.40;1.00;;;;;;6138977;23;20224;-82
2024/01/21 07:27:14;;;;;;;9.35;6.25;;;-2.30;1.00;;;;;;6150331;23;20181;-82
2024/01/21 07:29:41;;;;;;;15.25;5.85;;;-2.30;1.00;;;;;;6134946;23;20185;-83
2024/01/21 07:32:08;;;;;;;9.40;6.97;;;-2.30;1.00;;;;;;6134724;23;20204;-83
2024/01/21 07:34:35;;;;;;;10.35;7.95;;;-2.30;1.00;;;;;;6134112;23;20287;-82
2024/01/21 07:37:02;;;;;;;10.18;6.70;;;-2.20;1.00;;;;;;6134044;23;20209;-83
2024/01/21 07:39:28;;;;;;;9.60;5.63;;;-2.30;1.00;;;;;;6133855;23;20183;-83
2024/01/21 07:41:57;;;;;;;7.88;6.00;;;-2.20;1.00;;;;;;6133248;23;20237;-82
2024/01/21 07:44:23;;;;;;;8.55;7.05;;;-2.20;1.00;;;;;;6135313;23;20651;-83
2024/01/21 07:46:50;;;;;;;13.80;6.05;;;-2.20;1.00;;;;;;6134935;23;20236;-84
2024/01/21 07:49:17;;;;;;;9.02;6.93;;;-2.20;1.00;;;;;;6134571;23;20256;-83
2024/01/21 07:51:45;;;;;;;6.82;5.28;;;-2.20;1.00;;;;;;6134138;23;20212;-84
2024/01/21 07:54:11;;;;;;;9.05;7.13;;;-2.10;1.00;;;;;;6133549;23;20520;-84
2024/01/21 07:56:38;;;;;;;11.40;7.80;;;-2.00;1.00;;;;;;6143622;23;20201;-81
2024/01/21 07:59:06;;;;;;;8.63;6.95;;;-2.10;1.00;;;;;;6144681;23;20170;-83
2024/01/21 08:01:33;;;;;;;8.38;6.25;;;-2.10;1.00;;;;;;6144432;23;20181;-83
2024/01/21 08:04:00;;;;;;;7.40;5.70;;;-2.00;1.00;;;;;;6144911;23;20181;-83
2024/01/21 08:06:27;;;;;;;7.68;6.32;;;-2.00;1.00;;;;;;6137718;23;20216;-84
2024/01/21 08:08:53;;;;;;;10.75;7.53;;;-1.90;1.00;;;;;;6135542;23;20173;-83
2024/01/21 08:11:20;;;;;;;7.38;6.05;;;-1.90;1.00;;;;;;6134331;23;20192;-83
2024/01/21 08:13:47;;;;;;;8.07;6.60;;;-1.80;1.00;;;;;;6133974;23;20188;-83
2024/01/21 08:16:15;;;;;;;9.63;6.78;;;-1.80;1.00;;;;;;6135226;23;20588;-83
2024/01/21 08:18:42;;;;;;;8.77;5.88;;;-1.80;1.00;;;;;;6142055;23;20181;-82
2024/01/21 08:21:09;;;;;;;9.13;6.30;;;-1.70;1.00;;;;;;6140594;23;20181;-84
2024/01/21 08:23:36;;;;;;;10.82;7.05;;;-1.70;1.00;;;;;;6137696;23;20192;-85
2024/01/21 08:26:05;;;;;;;11.70;6.82;;;-1.60;1.00;;;;;;6135278;23;20225;-84
2024/01/21 08:28:31;;;;;;;8.27;5.90;;;-1.60;1.00;;;;;;6134669;23;20185;-84
2024/01/21 08:30:58;;;;;;;10.73;5.78;;;-1.50;1.00;;;;;;6134967;23;20188;-84
2024/01/21 08:33:26;;;;;;;7.20;4.88;;;-1.40;1.00;;;;;;6135393;23;20256;-84
2024/01/21 08:35:54;;;;;;;6.85;5.22;;;-1.50;1.00;;;;;;6134410;23;20212;-84
2024/01/21 08:38:21;;;;;;;7.72;5.10;;;-1.30;1.00;;;;;;6135494;23;20220;-83
2024/01/21 08:40:47;;;;;;;5.65;4.90;;;-1.30;1.00;;;;;;6134206;23;20701;-84
2024/01/21 08:43:17;;;;;;;6.78;5.60;;;-1.30;1.00;;;;;;6135071;23;20177;-83
2024/01/21 09:32:03;;;;;;;9.73;5.20;;;-0.60;99.90;;;;;;6110858;23;20204;-88
2024/01/21 09:41:54;;;;;;;8.80;5.65;;;-0.40;99.90;;;;;;5987882;24;20304;-88
2024/01/21 11:07:42;;;;;;;6.20;4.70;;;0.70;99.90;;;;;;6149750;23;20210;-90
2024/01/21 11:10:34;;;;;;;5.00;4.53;;;0.70;99.90;;;;;;6024318;23;20164;-90
2024/01/21 11:36:10;;;;;;;10.98;5.03;;;1.20;99.90;;;;;;6189024;23;20202;-90
2024/01/21 11:39:30;;;;;;;;;;;;;;;;;;;;;
2024/01/21 11:42:53;;;;;;;;;;;;;;;;;;;;;
2024/01/21 11:48:14;;;;;;;7.43;3.67;;;1.70;99.90;;;;;;6159641;23;20195;-85
2024/01/21 11:50:41;;;;;;;4.57;4.00;;;1.80;99.90;;;;;;6143843;23;20188;-86
2024/01/21 11:53:08;;;;;;;4.05;3.65;;;1.70;99.90;;;;;;6135760;23;20196;-85
2024/01/21 11:55:35;;;;;;;6.85;4.47;;;1.80;99.90;;;;;;6133992;23;20264;-87
2024/01/21 11:58:02;;;;;;;8.93;4.30;;;1.80;99.90;;;;;;6138759;23;20228;-84
2024/01/21 12:00:31;;;;;;;6.38;3.97;;;1.80;99.90;;;;;;6140922;23;20177;-85
2024/01/21 12:02:57;;;;;;;6.65;4.63;;;1.80;99.90;;;;;;6140080;23;20208;-85
2024/01/21 12:05:24;;;;;;;4.68;4.25;;;1.70;99.90;;;;;;6137424;23;20257;-85
2024/01/21 12:07:51;;;;;;;12.00;5.28;;;1.80;99.90;;;;;;6135151;23;20197;-85
2024/01/21 12:10:18;;;;;;;5.20;3.97;;;1.80;99.90;;;;;;6136645;23;20188;-85
2024/01/21 12:12:45;;;;;;;7.90;4.38;;;1.80;99.90;;;;;;6139011;23;20632;-85
2024/01/21 12:15:12;;;;;;;7.38;4.68;;;1.80;99.90;;;;;;6136645;23;20232;-85
2024/01/21 12:17:40;;;;;;;8.20;5.47;;;1.70;99.90;;;;;;6137717;23;20232;-85
2024/01/21 12:20:08;;;;;;;4.47;4.07;;;1.80;99.90;;;;;;6135599;23;20181;-85
2024/01/21 12:22:39;;;;;;;4.82;4.32;;;1.70;99.90;;;;;;6139600;23;20707;-85
2024/01/21 12:25:08;;;;;;;5.20;4.13;;;1.70;99.90;;;;;;6138807;23;20216;-84
2024/01/21 12:27:36;;;;;;;7.00;4.15;;;1.80;99.90;;;;;;6140430;23;20212;-83
2024/01/21 12:30:03;;;;;;;5.22;4.57;;;1.80;99.90;;;;;;6140289;23;20181;-85
2024/01/21 12:32:30;;;;;;;6.65;4.57;;;1.80;99.90;;;;;;6139415;23;20587;-84
2024/01/21 12:35:00;;;;;;;5.18;4.40;;;1.90;99.90;;;;;;6150744;23;20180;-84
2024/01/21 12:37:26;;;;;;;4.90;4.40;;;2.00;99.90;;;;;;6149850;23;20192;-84
2024/01/21 12:39:53;;;;;;;8.73;4.53;;;2.00;99.90;;;;;;6148341;23;20181;-84
2024/01/21 12:42:20;;;;;;;5.13;4.63;;;2.00;99.90;;;;;;6146609;23;20181;-84
2024/01/21 12:44:47;;;;;;;6.43;5.28;;;1.90;99.90;;;;;;6146559;23;20188;-84
2024/01/21 12:47:14;;;;;;;7.45;4.10;;;1.90;99.90;;;;;;6140767;23;20232;-84
2024/01/21 12:49:40;;;;;;;6.50;3.40;;;2.00;99.90;;;;;;6141691;23;20181;-83
2024/01/21 12:52:09;;;;;;;5.22;4.72;;;2.00;99.90;;;;;;6143960;23;20181;-83
2024/01/21 12:54:36;;;;;;;4.93;4.00;;;2.10;99.90;;;;;;6151956;23;20173;-84
2024/01/21 12:57:03;;;;;;;10.52;4.35;;;2.20;99.90;;;;;;6144218;23;20204;-84
2024/01/21 12:59:31;;;;;;;5.35;3.35;;;2.20;99.90;;;;;;6143866;23;20180;-84
2024/01/21 13:01:58;;;;;;;3.88;3.58;;;2.20;99.90;;;;;;6143783;23;20263;-83
2024/01/21 13:04:24;;;;;;;6.60;4.53;;;2.30;99.90;;;;;;6141238;23;20238;-83
2024/01/21 13:06:51;;;;;;;5.05;4.45;;;2.30;99.90;;;;;;6139846;23;20205;-83
2024/01/21 13:09:20;;;;;;;4.25;3.85;;;2.40;99.90;;;;;;6139503;23;20180;-83
2024/01/21 13:11:46;;;;;;;4.60;4.13;;;2.40;99.90;;;;;;6139090;23;20181;-84
2024/01/21 13:14:13;;;;;;;4.68;3.70;;;2.50;99.90;;;;;;6138948;23;20188;-84
2024/01/21 13:16:40;;;;;;;4.07;3.25;;;2.50;99.90;;;;;;6137278;23;20208;-84
2024/01/21 13:19:07;;;;;;;3.88;3.55;;;2.50;99.90;;;;;;6136744;23;20259;-84
2024/01/21 13:21:34;;;;;;;4.32;3.75;;;2.50;99.90;;;;;;6139259;23;20228;-85
2024/01/21 13:24:01;;;;;;;8.23;4.20;;;2.50;99.90;;;;;;6140105;23;20188;-84
2024/01/21 13:26:29;;;;;;;11.18;5.15;;;2.60;99.90;;;;;;6147622;23;20193;-83
2024/01/21 13:31:38;;;;;;;3.92;3.33;;;2.70;99.90;;;;;;6154206;23;20161;-81
2024/01/21 13:34:05;;;;;;;4.55;3.40;;;2.70;99.90;;;;;;6154130;23;20177;-82
2024/01/21 13:36:33;;;;;;;8.75;6.30;;;2.80;99.90;;;;;;6151203;23;20192;-82
2024/01/21 13:39:00;;;;;;;3.00;2.70;;;2.80;99.90;;;;;;6150184;23;20177;-84
2024/01/21 13:41:27;;;;;;;3.70;2.95;;;2.80;99.90;;;;;;6152242;23;20181;-84
2024/01/21 13:43:55;;;;;;;3.40;3.10;;;2.80;99.90;;;;;;6152755;23;20161;-82
2024/01/21 13:46:22;;;;;;;6.70;2.97;;;2.90;99.90;;;;;;6153540;23;20189;-83
2024/01/21 13:48:49;;;;;;;6.03;2.67;;;3.00;99.90;;;;;;6142625;23;20683;-84
2024/01/21 13:51:17;;;;;;;3.78;3.28;;;3.00;99.90;;;;;;6140379;23;20232;-84
2024/01/21 13:53:46;;;;;;;7.97;3.15;;;3.00;99.90;;;;;;6139179;23;20204;-85
2024/01/21 13:56:14;;;;;;;3.55;2.65;;;3.00;99.90;;;;;;6141731;23;20178;-85
2024/01/21 13:58:41;;;;;;;8.60;3.80;;;3.00;99.90;;;;;;6146658;23;20283;-84
2024/01/21 14:01:09;;;;;;;4.40;3.08;;;3.10;99.90;;;;;;6146378;23;20192;-84
2024/01/21 14:03:36;;;;;;;2.88;2.30;;;3.10;99.90;;;;;;6143614;23;20185;-84
2024/01/21 14:06:03;;;;;;;3.65;3.22;;;3.10;99.90;;;;;;6141564;23;20272;-85
2024/01/21 14:08:30;;;;;;;4.32;3.13;;;3.10;99.90;;;;;;6140056;23;20257;-84
2024/01/21 14:10:57;;;;;;;3.55;2.67;;;3.10;99.90;;;;;;6139706;23;20181;-85
2024/01/21 14:13:24;;;;;;;4.32;3.47;;;3.10;99.90;;;;;;6139391;23;20192;-84
2024/01/21 14:15:51;;;;;;;4.20;3.80;;;3.10;99.90;;;;;;6140153;23;20193;-84
2024/01/21 14:18:19;;;;;;;6.18;2.97;;;3.10;99.90;;;;;;6132418;23;20683;-83
2024/01/21 14:20:47;;;;;;;3.38;3.10;;;3.10;99.90;;;;;;6133540;23;20264;-84
2024/01/21 14:23:14;;;;;;;3.90;3.20;;;3.10;99.90;;;;;;6137263;23;20184;-84
2024/01/21 14:25:45;;;;;;;4.88;3.35;;;3.10;99.90;;;;;;6143285;23;20185;-83
2024/01/21 14:28:12;;;;;;;5.28;4.70;;;3.10;99.90;;;;;;6152912;23;20205;-83
2024/01/21 14:30:39;;;;;;;5.22;4.07;;;3.20;99.90;;;;;;6151053;23;20169;-83
2024/01/21 14:33:06;;;;;;;8.10;3.80;;;3.20;99.90;;;;;;6140750;23;20533;-83
2024/01/21 14:35:34;;;;;;;8.15;3.75;;;3.10;99.90;;;;;;6140331;23;20216;-84
2024/01/21 14:38:01;;;;;;;4.78;3.50;;;3.10;99.90;;;;;;6140014;23;20197;-84
2024/01/21 14:40:28;;;;;;;3.90;3.60;;;3.00;99.90;;;;;;6144772;23;20188;-84
2024/01/21 14:42:56;;;;;;;13.32;4.60;;;2.90;99.90;;;;;;6149894;23;20212;-84
2024/01/21 14:45:23;;;;;;;5.97;3.72;;;2.80;99.90;;;;;;6146474;23;20696;-84
2024/01/21 14:47:50;;;;;;;3.88;3.55;;;2.80;99.90;;;;;;6145419;23;20205;-83
2024/01/21 14:50:17;;;;;;;6.07;3.42;;;2.70;99.90;;;;;;6150389;23;20177;-84
2024/01/21 14:52:47;;;;;;;3.95;3.55;;;2.60;99.90;;;;;;6152225;23;20181;-84
2024/01/21 14:55:14;;;;;;;8.32;5.32;;;2.60;99.90;;;;;;6153704;23;20181;-84
2024/01/21 14:57:41;;;;;;;6.50;4.30;;;2.60;99.90;;;;;;6152765;23;20213;-83
2024/01/21 15:00:09;;;;;;;9.85;3.67;;;2.60;99.90;;;;;;6144319;23;20181;-84
2024/01/21 15:02:36;;;;;;;8.10;3.97;;;2.50;99.90;;;;;;6142268;23;20200;-83
2024/01/21 15:05:03;;;;;;;4.28;3.55;;;2.50;99.90;;;;;;6143176;23;20204;-84
2024/01/21 15:07:30;;;;;;;3.47;2.75;;;2.50;99.90;;;;;;6141744;23;20228;-83
2024/01/21 15:09:58;;;;;;;9.82;4.35;;;2.40;99.90;;;;;;6141822;23;20212;-84
2024/01/21 15:12:25;;;;;;;5.70;4.15;;;2.40;99.90;;;;;;6141374;23;20181;-83
2024/01/21 15:14:56;;;;;;;6.53;4.22;;;2.40;99.90;;;;;;6140177;23;20217;-83
2024/01/21 15:17:23;;;;;;;4.97;4.47;;;2.40;99.90;;;;;;6139513;23;20224;-83
2024/01/21 15:19:50;;;;;;;6.75;4.40;;;2.40;99.90;;;;;;6140369;23;20181;-84
2024/01/21 15:22:17;;;;;;;9.18;4.78;;;2.40;99.90;;;;;;6144385;23;20177;-81
2024/01/21 15:24:43;;;;;;;5.82;4.13;;;2.30;99.90;;;;;;6142915;23;20177;-85
2024/01/21 15:27:13;;;;;;;6.55;3.40;;;2.40;99.90;;;;;;6136606;23;20212;-84
2024/01/21 15:29:40;;;;;;;4.38;3.97;;;2.40;99.90;;;;;;6138781;23;20181;-84
2024/01/21 15:32:07;;;;;;;9.55;4.15;;;2.40;99.90;;;;;;6138855;23;20181;-85
2024/01/21 15:34:34;;;;;;;4.57;4.05;;;2.40;99.90;;;;;;6138521;23;20181;-85
2024/01/21 15:37:01;;;;;;;5.53;4.57;;;2.40;99.90;;;;;;6139201;23;20197;-84
2024/01/21 15:39:28;;;;;;;4.35;3.90;;;2.50;99.90;;;;;;6141081;23;20169;-84
2024/01/21 15:41:55;;;;;;;5.00;3.95;;;2.50;99.90;;;;;;6152148;23;20181;-84
2024/01/21 15:44:25;;;;;;;5.80;4.85;;;2.50;99.90;;;;;;6153307;23;20182;-84
2024/01/21 15:46:52;;;;;;;7.05;3.80;;;2.50;99.90;;;;;;6148826;23;20193;-84
2024/01/21 15:49:19;;;;;;;7.25;4.07;;;2.50;99.90;;;;;;6151405;23;20154;-83
2024/01/21 15:51:46;;;;;;;4.57;4.10;;;2.50;99.90;;;;;;6149559;23;20188;-85
2024/01/21 15:54:13;;;;;;;4.07;3.60;;;2.50;99.90;;;;;;6143512;23;20177;-84
2024/01/21 15:56:40;;;;;;;5.13;3.97;;;2.50;99.90;;;;;;6140053;23;20188;-85
2024/01/21 15:59:08;;;;;;;6.00;4.75;;;2.40;99.90;;;;;;6139525;23;20276;-85
2024/01/21 16:01:36;;;;;;;6.75;4.38;;;2.40;99.90;;;;;;6138499;23;20181;-84
2024/01/21 16:04:03;;;;;;;5.60;4.10;;;2.30;99.90;;;;;;6138326;23;20200;-84
2024/01/21 16:06:30;;;;;;;11.35;4.45;;;2.30;99.90;;;;;;6137237;23;20220;-84
2024/01/21 16:08:57;;;;;;;4.70;4.28;;;2.30;99.90;;;;;;6137940;23;20212;-85
2024/01/21 16:11:24;;;;;;;4.80;4.05;;;2.30;99.90;;;;;;6136820;23;20181;-85
2024/01/21 16:13:51;;;;;;;5.95;4.30;;;2.20;99.90;;;;;;6136842;23;20181;-84
2024/01/21 16:16:18;;;;;;;11.13;4.80;;;2.20;99.90;;;;;;6137970;23;20188;-84
2024/01/21 16:18:47;;;;;;;5.10;4.50;;;2.20;99.90;;;;;;6140994;23;20197;-84
2024/01/21 16:21:15;;;;;;;4.97;4.57;;;2.20;99.90;;;;;;6148502;23;20181;-83
2024/01/21 16:23:42;;;;;;;6.85;4.30;;;2.20;99.90;;;;;;6150829;23;20181;-83
2024/01/21 16:26:08;;;;;;;6.28;5.35;;;2.20;99.90;;;;;;6151907;23;20181;-84
2024/01/21 16:28:35;;;;;;;5.65;4.93;;;2.20;99.90;;;;;;6150094;23;20220;-84
2024/01/21 16:31:02;;;;;;;8.85;5.30;;;2.20;99.90;;;;;;6150869;23;20181;-82
2024/01/21 16:33:32;;;;;;;4.63;4.18;;;2.20;99.90;;;;;;6150023;23;20188;-83
2024/01/21 16:36:00;;;;;;;5.35;4.75;;;2.20;99.90;;;;;;6142191;23;20173;-85
2024/01/21 16:38:27;;;;;;;5.47;4.40;;;2.20;99.90;;;;;;6136561;23;20546;-83
2024/01/21 16:40:55;;;;;;;7.00;6.22;;;2.20;99.90;;;;;;6134166;23;20204;-84
2024/01/21 16:43:22;;;;;;;4.85;4.45;;;2.20;99.90;;;;;;6135221;23;20180;-84
2024/01/21 16:45:49;;;;;;;5.85;4.63;;;2.20;99.90;;;;;;6151764;23;20160;-82
2024/01/21 16:48:16;;;;;;;7.72;5.15;;;2.20;99.90;;;;;;6153928;23;20197;-83
2024/01/21 16:50:47;;;;;;;5.97;5.07;;;2.10;99.90;;;;;;6146721;23;20184;-85
2024/01/21 16:53:29;;;;;;;8.45;5.75;;;2.10;99.90;;;;;;6141844;23;20166;-84
2024/01/21 16:55:56;;;;;;;17.30;12.13;;;2.10;99.90;;;;;;6142990;23;20216;-84
2024/01/21 16:58:22;;;;;;;15.48;8.25;;;2.10;99.90;;;;;;6143906;23;20194;-84
2024/01/21 17:00:52;;;;;;;8.98;5.85;;;2.10;99.90;;;;;;6142820;23;20181;-83
2024/01/21 17:03:20;;;;;;;12.32;7.22;;;2.20;99.90;;;;;;6140637;23;20663;-84
2024/01/21 17:05:46;;;;;;;14.13;7.30;;;2.20;99.90;;;;;;6139218;23;20513;-85
2024/01/21 17:08:15;;;;;;;12.30;7.00;;;2.20;99.90;;;;;;6137059;23;20280;-85
2024/01/21 17:10:47;;;;;;;9.32;6.65;;;2.20;99.90;;;;;;6136967;23;20232;-84
2024/01/21 17:13:14;;;;;;;10.13;6.07;;;2.30;99.90;;;;;;6136403;23;20196;-83
2024/01/21 17:15:41;;;;;;;8.70;5.88;;;2.20;99.90;;;;;;6143802;23;20231;-83
2024/01/21 17:18:17;;;;;;;16.85;9.40;;;2.30;99.90;;;;;;6140533;23;20281;-84
2024/01/21 17:20:43;;;;;;;13.95;8.15;;;2.30;99.90;;;;;;6142704;23;20188;-84
2024/01/21 17:23:10;;;;;;;14.20;6.97;;;2.30;99.90;;;;;;6140502;23;20221;-84
2024/01/21 17:25:39;;;;;;;14.52;7.25;;;2.30;99.90;;;;;;6140430;23;20265;-84
2024/01/21 17:28:07;;;;;;;6.88;5.45;;;2.30;99.90;;;;;;6142988;23;20205;-84
2024/01/21 17:30:34;;;;;;;5.47;4.95;;;2.40;99.90;;;;;;6144453;23;20188;-84
2024/01/21 17:33:01;;;;;;;7.07;5.30;;;2.40;99.90;;;;;;6143363;23;20181;-85
2024/01/21 17:35:28;;;;;;;8.48;7.05;;;2.40;99.90;;;;;;6142638;23;20184;-84
2024/01/21 17:37:56;;;;;;;11.60;7.95;;;2.40;99.90;;;;;;6142288;23;20204;-84
2024/01/21 17:40:23;;;;;;;9.80;7.07;;;2.40;99.90;;;;;;6142786;23;20192;-84
2024/01/21 17:42:52;;;;;;;9.77;5.35;;;2.40;99.90;;;;;;6140838;23;20183;-84
2024/01/21 17:45:18;;;;;;;5.30;4.80;;;2.40;99.90;;;;;;6140872;23;20181;-84
2024/01/21 17:53:54;;;;;;;;;;;;;;;;;;;;;
2024/01/21 18:08:20;;;;;;;8.88;5.97;;;2.60;99.90;;;;;;6057115;23;20251;-92
